Novomar — 5BCT2 — position and weather

sailwx.info

Track history (hours):
 
Tides and Currents Weather Stations Pressure Air Temp Water Temp Dewpoint Dewpoint Depression Visibility Wind Speed Wind Dir Waves Ship Positions

Novomar

Last reported at 2015-Jul-31 18:33 UTC. Time now 2015-Jul-31 19:24 UTC.
Position N 53°53' E 007°52'.

Length 89 m; draft 5.3 m.

Type: Cargo ship. MMSI: 210974000.

Date/timePositionNaut miles runAvg speedWind from/ knotsBaromVisibWave heightAir tempDewpointWater temp
2015-Jul-31 18:33N 53°53' E 007°52'18 8.6
2015-Jul-31 16:30N 54°00' E 008°19'1212.5
2015-Jul-31 15:33N 53°57' E 008°39'1111.1
2015-Jul-31 14:34N 53°51' E 008°54'9 9.2
2015-Jul-31 13:34N 53°54' E 009°09'5 4.4
2015-Jul-31 12:32N 53°57' E 009°14'17 7.6
2015-Jul-31 10:17N 54°11' E 009°30'8 8.1
2015-Jul-31 09:20N 54°17' E 009°38'6 7.8
2015-Jul-31 08:33N 54°21' E 009°46'7 7.1
2015-Jul-31 07:34N 54°21' E 009°58'6 5.5
2015-Jul-31 06:34N 54°22' E 010°07'1 1.2
2015-Jul-31 05:34N 54°22' E 010°09'6 6.3
2015-Jul-31 04:34N 54°27' E 010°14'9 8.6
2015-Jul-31 03:34N 54°32' E 010°27'25 8.3
2015-Jul-31 00:33N 54°36' E 011°10'8 8.0
2015-Jul-30 23:34N 54°33' E 011°22'8 7.7
2015-Jul-30 22:33N 54°30' E 011°34'8 8.0
2015-Jul-30 21:34N 54°26' E 011°47'8 7.9
2015-Jul-30 20:33N 54°26' E 012°00'73 8.1
2015-Jul-30 11:32N 55°02' E 013°51'9 9.5
2015-Jul-30 10:33N 55°06' E 014°06'10 9.7
2015-Jul-30 09:33N 55°13' E 014°17'1010.0
2015-Jul-30 08:33N 55°21' E 014°28'10 9.9
2015-Jul-30 07:33N 55°28' E 014°40'1010.1
2015-Jul-30 06:33N 55°33' E 014°56'1010.2
2015-Jul-30 05:33N 55°38' E 015°11'111 9.2
2015-Jul-29 17:29N 57°02' E 017°22'9 9.6
2015-Jul-29 16:33N 57°10' E 017°28'10 9.4
2015-Jul-29 15:32N 57°19' E 017°34'  
2015-Jul-22 22:33N 59°38' E 020°56'1110.6
2015-Jul-22 21:33N 59°35' E 021°17'1110.5
2015-Jul-22 20:31N 59°34' E 021°38'1010.3
2015-Jul-22 19:33N 59°33' E 021°57'1010.0
2015-Jul-22 18:33N 59°32' E 022°17'42 9.7
2015-Jul-22 14:14N 59°35' E 023°39'30 8.2
2015-Jul-22 10:33N 59°38' E 024°39'6 6.1
2015-Jul-22 09:33N 59°35' E 024°49'0 0.1
2015-Jul-22 08:15N 59°35' E 024°49'0 0.0
2015-Jul-22 07:27N 59°35' E 024°49'0 0.0
2015-Jul-22 06:33N 59°35' E 024°49'0 0.1
2015-Jul-22 05:33N 59°35' E 024°49'0 0.1
2015-Jul-22 04:30N 59°35' E 024°49'0 0.0
2015-Jul-22 03:33N 59°35' E 024°49'0 0.0
2015-Jul-22 02:33N 59°35' E 024°49'0 0.0
2015-Jul-22 01:33N 59°35' E 024°49'0 0.0
2015-Jul-22 00:33N 59°35' E 024°49'0 0.0
2015-Jul-21 23:33N 59°35' E 024°49'0 0.0
2015-Jul-21 22:33N 59°35' E 024°49'0 0.0
2015-Jul-21 21:33N 59°35' E 024°49'0 0.0
2015-Jul-21 20:33N 59°35' E 024°49'0 0.1
2015-Jul-21 19:24N 59°35' E 024°49'  
Track history (hours):
 
Tides and Currents Weather Stations Pressure Air Temp Water Temp Dewpoint Dewpoint Depression Visibility Wind Speed Wind Dir Waves Ship Positions

Novomar

Last reported at 2015-Jul-31 18:33 UTC. Time now 2015-Jul-31 19:24 UTC.
Position N 53°53' E 007°52'.

Length 89 m; draft 5.3 m.

Type: Cargo ship. MMSI: 210974000.

Date/timePositionNaut miles runAvg speedWind from/ knotsBaromVisibWave heightAir tempDewpointWater temp
2015-Jul-31 18:33N 53°53' E 007°52'18 8.6
2015-Jul-31 16:30N 54°00' E 008°19'1212.5
2015-Jul-31 15:33N 53°57' E 008°39'1111.1
2015-Jul-31 14:34N 53°51' E 008°54'9 9.2
2015-Jul-31 13:34N 53°54' E 009°09'5 4.4
2015-Jul-31 12:32N 53°57' E 009°14'17 7.6
2015-Jul-31 10:17N 54°11' E 009°30'8 8.1
2015-Jul-31 09:20N 54°17' E 009°38'6 7.8
2015-Jul-31 08:33N 54°21' E 009°46'7 7.1
2015-Jul-31 07:34N 54°21' E 009°58'6 5.5
2015-Jul-31 06:34N 54°22' E 010°07'1 1.2
2015-Jul-31 05:34N 54°22' E 010°09'6 6.3
2015-Jul-31 04:34N 54°27' E 010°14'9 8.6
2015-Jul-31 03:34N 54°32' E 010°27'25 8.3
2015-Jul-31 00:33N 54°36' E 011°10'8 8.0
2015-Jul-30 23:34N 54°33' E 011°22'8 7.7
2015-Jul-30 22:33N 54°30' E 011°34'8 8.0
2015-Jul-30 21:34N 54°26' E 011°47'8 7.9
2015-Jul-30 20:33N 54°26' E 012°00'73 8.1
2015-Jul-30 11:32N 55°02' E 013°51'9 9.5
2015-Jul-30 10:33N 55°06' E 014°06'10 9.7
2015-Jul-30 09:33N 55°13' E 014°17'1010.0
2015-Jul-30 08:33N 55°21' E 014°28'10 9.9
2015-Jul-30 07:33N 55°28' E 014°40'1010.1
2015-Jul-30 06:33N 55°33' E 014°56'1010.2
2015-Jul-30 05:33N 55°38' E 015°11'111 9.2
2015-Jul-29 17:29N 57°02' E 017°22'9 9.6
2015-Jul-29 16:33N 57°10' E 017°28'10 9.4
2015-Jul-29 15:32N 57°19' E 017°34'  
2015-Jul-22 22:33N 59°38' E 020°56'1110.6
2015-Jul-22 21:33N 59°35' E 021°17'1110.5
2015-Jul-22 20:31N 59°34' E 021°38'1010.3
2015-Jul-22 19:33N 59°33' E 021°57'1010.0
2015-Jul-22 18:33N 59°32' E 022°17'42 9.7
2015-Jul-22 14:14N 59°35' E 023°39'30 8.2
2015-Jul-22 10:33N 59°38' E 024°39'6 6.1
2015-Jul-22 09:33N 59°35' E 024°49'0 0.1
2015-Jul-22 08:15N 59°35' E 024°49'0 0.0
2015-Jul-22 07:27N 59°35' E 024°49'0 0.0
2015-Jul-22 06:33N 59°35' E 024°49'0 0.1
2015-Jul-22 05:33N 59°35' E 024°49'0 0.1
2015-Jul-22 04:30N 59°35' E 024°49'0 0.0
2015-Jul-22 03:33N 59°35' E 024°49'0 0.0
2015-Jul-22 02:33N 59°35' E 024°49'0 0.0
2015-Jul-22 01:33N 59°35' E 024°49'0 0.0
2015-Jul-22 00:33N 59°35' E 024°49'0 0.0
2015-Jul-21 23:33N 59°35' E 024°49'0 0.0
2015-Jul-21 22:33N 59°35' E 024°49'0 0.0
2015-Jul-21 21:33N 59°35' E 024°49'0 0.0
2015-Jul-21 20:33N 59°35' E 024°49'0 0.1
2015-Jul-21 19:24N 59°35' E 024°49'  

Dump ship's entire track history